sensor_id;sensor_type;location;lat;lon;timestamp;P1;durP1;ratioP1;P2;durP2;ratioP2
18507;SDS011;9383;50.928;12.116;2022-09-09T00:00:14;2.38;;;1.83;;
18507;SDS011;9383;50.928;12.116;2022-09-09T00:02:48;5.20;;;1.80;;
18507;SDS011;9383;50.928;12.116;2022-09-09T00:05:41;3.05;;;1.95;;
18507;SDS011;9383;50.928;12.116;2022-09-09T00:08:30;6.00;;;1.80;;
18507;SDS011;9383;50.928;12.116;2022-09-09T00:11:36;1.80;;;1.70;;
18507;SDS011;9383;50.928;12.116;2022-09-09T00:14:20;1.80;;;1.63;;
18507;SDS011;9383;50.928;12.116;2022-09-09T00:17:00;2.10;;;2.00;;
18507;SDS011;9383;50.928;12.116;2022-09-09T00:19:53;2.28;;;1.60;;
18507;SDS011;9383;50.928;12.116;2022-09-09T00:22:46;3.25;;;1.63;;
18507;SDS011;9383;50.928;12.116;2022-09-09T00:28:27;1.83;;;1.52;;
18507;SDS011;9383;50.928;12.116;2022-09-09T00:31:01;1.90;;;1.65;;
18507;SDS011;9383;50.928;12.116;2022-09-09T00:33:40;5.22;;;1.80;;
18507;SDS011;9383;50.928;12.116;2022-09-09T00:36:16;1.67;;;1.45;;
18507;SDS011;9383;50.928;12.116;2022-09-09T00:38:52;4.18;;;1.67;;
18507;SDS011;9383;50.928;12.116;2022-09-09T00:50:03;1.52;;;1.42;;
18507;SDS011;9383;50.928;12.116;2022-09-09T00:53:10;1.77;;;1.67;;
18507;SDS011;9383;50.928;12.116;2022-09-09T00:58:43;2.97;;;1.95;;
18507;SDS011;9383;50.928;12.116;2022-09-09T01:01:37;5.95;;;2.40;;
18507;SDS011;9383;50.928;12.116;2022-09-09T01:04:11;3.08;;;1.75;;
18507;SDS011;9383;50.928;12.116;2022-09-09T01:06:46;2.80;;;1.80;;
18507;SDS011;9383;50.928;12.116;2022-09-09T01:09:32;3.60;;;1.70;;
18507;SDS011;9383;50.928;12.116;2022-09-09T01:12:27;1.92;;;1.77;;
18507;SDS011;9383;50.928;12.116;2022-09-09T01:15:10;2.92;;;1.70;;
18507;SDS011;9383;50.928;12.116;2022-09-09T01:17:50;2.45;;;1.75;;
18507;SDS011;9383;50.928;12.116;2022-09-09T01:20:36;1.90;;;1.80;;
18507;SDS011;9383;50.928;12.116;2022-09-09T01:23:44;2.10;;;1.60;;
18507;SDS011;9383;50.928;12.116;2022-09-09T01:26:37;1.95;;;1.45;;
18507;SDS011;9383;50.928;12.116;2022-09-09T01:29:12;2.38;;;2.15;;
18507;SDS011;9383;50.928;12.116;2022-09-09T01:31:51;2.17;;;1.85;;
18507;SDS011;9383;50.928;12.116;2022-09-09T01:34:23;3.50;;;1.77;;
18507;SDS011;9383;50.928;12.116;2022-09-09T01:39:34;1.80;;;1.70;;
18507;SDS011;9383;50.928;12.116;2022-09-09T01:42:22;1.70;;;1.60;;
18507;SDS011;9383;50.928;12.116;2022-09-09T01:44:50;3.05;;;1.65;;
18507;SDS011;9383;50.928;12.116;2022-09-09T01:47:17;2.75;;;1.55;;
18507;SDS011;9383;50.928;12.116;2022-09-09T01:49:44;2.90;;;1.67;;
18507;SDS011;9383;50.928;12.116;2022-09-09T01:52:23;2.78;;;1.55;;
18507;SDS011;9383;50.928;12.116;2022-09-09T01:54:52;2.38;;;2.10;;
18507;SDS011;9383;50.928;12.116;2022-09-09T01:57:23;2.72;;;1.40;;
18507;SDS011;9383;50.928;12.116;2022-09-09T02:02:36;2.75;;;1.80;;
18507;SDS011;9383;50.928;12.116;2022-09-09T02:05:40;1.73;;;1.63;;
18507;SDS011;9383;50.928;12.116;2022-09-09T02:08:20;3.33;;;1.70;;
18507;SDS011;9383;50.928;12.116;2022-09-09T02:13:32;2.38;;;2.00;;
18507;SDS011;9383;50.928;12.116;2022-09-09T02:21:18;3.67;;;1.75;;
18507;SDS011;9383;50.928;12.116;2022-09-09T02:23:47;3.28;;;1.48;;
18507;SDS011;9383;50.928;12.116;2022-09-09T02:26:18;4.30;;;1.30;;
18507;SDS011;9383;50.928;12.116;2022-09-09T02:28:49;4.53;;;1.50;;
18507;SDS011;9383;50.928;12.116;2022-09-09T02:31:21;2.38;;;1.50;;
18507;SDS011;9383;50.928;12.116;2022-09-09T02:33:53;2.55;;;1.58;;
18507;SDS011;9383;50.928;12.116;2022-09-09T02:36:27;3.05;;;1.60;;
18507;SDS011;9383;50.928;12.116;2022-09-09T02:38:58;2.45;;;1.75;;
18507;SDS011;9383;50.928;12.116;2022-09-09T02:41:32;2.05;;;1.70;;
18507;SDS011;9383;50.928;12.116;2022-09-09T02:44:05;3.22;;;1.45;;
18507;SDS011;9383;50.928;12.116;2022-09-09T02:55:55;1.63;;;1.48;;
18507;SDS011;9383;50.928;12.116;2022-09-09T02:58:39;2.40;;;1.80;;
18507;SDS011;9383;50.928;12.116;2022-09-09T03:01:07;2.58;;;1.45;;
18507;SDS011;9383;50.928;12.116;2022-09-09T03:03:34;2.97;;;2.03;;
18507;SDS011;9383;50.928;12.116;2022-09-09T03:06:02;1.95;;;1.55;;
18507;SDS011;9383;50.928;12.116;2022-09-09T03:08:33;3.20;;;1.50;;
18507;SDS011;9383;50.928;12.116;2022-09-09T03:10:59;2.75;;;1.52;;
18507;SDS011;9383;50.928;12.116;2022-09-09T03:13:27;2.15;;;1.60;;
18507;SDS011;9383;50.928;12.116;2022-09-09T03:15:54;3.05;;;1.80;;
18507;SDS011;9383;50.928;12.116;2022-09-09T03:18:22;1.92;;;1.70;;
18507;SDS011;9383;50.928;12.116;2022-09-09T03:20:49;1.77;;;1.58;;
18507;SDS011;9383;50.928;12.116;2022-09-09T03:23:17;4.68;;;1.70;;
18507;SDS011;9383;50.928;12.116;2022-09-09T03:25:49;1.35;;;1.25;;
18507;SDS011;9383;50.928;12.116;2022-09-09T03:28:22;1.80;;;1.30;;
18507;SDS011;9383;50.928;12.116;2022-09-09T03:30:50;2.65;;;1.50;;
18507;SDS011;9383;50.928;12.116;2022-09-09T03:33:17;2.90;;;1.40;;
18507;SDS011;9383;50.928;12.116;2022-09-09T03:35:45;1.60;;;1.48;;
18507;SDS011;9383;50.928;12.116;2022-09-09T03:38:17;3.20;;;1.30;;
18507;SDS011;9383;50.928;12.116;2022-09-09T03:40:50;2.28;;;1.50;;
18507;SDS011;9383;50.928;12.116;2022-09-09T03:43:22;3.00;;;1.33;;
18507;SDS011;9383;50.928;12.116;2022-09-09T03:45:52;2.50;;;1.40;;
18507;SDS011;9383;50.928;12.116;2022-09-09T03:48:25;2.72;;;1.55;;
18507;SDS011;9383;50.928;12.116;2022-09-09T03:50:53;2.90;;;1.67;;
18507;SDS011;9383;50.928;12.116;2022-09-09T03:53:22;4.07;;;1.48;;
18507;SDS011;9383;50.928;12.116;2022-09-09T03:55:51;3.67;;;1.48;;
18507;SDS011;9383;50.928;12.116;2022-09-09T03:58:22;4.07;;;1.75;;
18507;SDS011;9383;50.928;12.116;2022-09-09T04:00:55;2.30;;;1.30;;
18507;SDS011;9383;50.928;12.116;2022-09-09T04:03:25;3.75;;;1.33;;
18507;SDS011;9383;50.928;12.116;2022-09-09T04:05:52;2.17;;;1.40;;
18507;SDS011;9383;50.928;12.116;2022-09-09T04:08:20;3.22;;;1.63;;
18507;SDS011;9383;50.928;12.116;2022-09-09T04:10:51;2.38;;;1.30;;
18507;SDS011;9383;50.928;12.116;2022-09-09T04:13:19;2.72;;;1.33;;
18507;SDS011;9383;50.928;12.116;2022-09-09T04:15:54;1.70;;;1.50;;
18507;SDS011;9383;50.928;12.116;2022-09-09T04:18:26;2.80;;;1.13;;
18507;SDS011;9383;50.928;12.116;2022-09-09T04:20:57;2.75;;;1.13;;
18507;SDS011;9383;50.928;12.116;2022-09-09T04:23:30;3.15;;;1.30;;
18507;SDS011;9383;50.928;12.116;2022-09-09T04:25:58;3.00;;;1.60;;
18507;SDS011;9383;50.928;12.116;2022-09-09T04:28:29;3.33;;;1.88;;
18507;SDS011;9383;50.928;12.116;2022-09-09T04:31:05;2.13;;;1.30;;
18507;SDS011;9383;50.928;12.116;2022-09-09T04:33:45;3.92;;;1.40;;
18507;SDS011;9383;50.928;12.116;2022-09-09T04:36:16;2.25;;;1.23;;
18507;SDS011;9383;50.928;12.116;2022-09-09T04:38:46;1.35;;;1.23;;
18507;SDS011;9383;50.928;12.116;2022-09-09T04:41:15;1.77;;;1.30;;
18507;SDS011;9383;50.928;12.116;2022-09-09T04:43:44;2.45;;;1.52;;
18507;SDS011;9383;50.928;12.116;2022-09-09T04:46:10;2.83;;;1.70;;
18507;SDS011;9383;50.928;12.116;2022-09-09T04:48:40;2.10;;;1.38;;
18507;SDS011;9383;50.928;12.116;2022-09-09T04:51:14;2.08;;;1.40;;
18507;SDS011;9383;50.928;12.116;2022-09-09T04:53:43;3.58;;;1.38;;
18507;SDS011;9383;50.928;12.116;2022-09-09T04:56:14;2.15;;;1.20;;
18507;SDS011;9383;50.928;12.116;2022-09-09T04:58:48;4.60;;;1.40;;
18507;SDS011;9383;50.928;12.116;2022-09-09T05:01:16;2.92;;;1.35;;
18507;SDS011;9383;50.928;12.116;2022-09-09T05:03:46;2.67;;;1.35;;
18507;SDS011;9383;50.928;12.116;2022-09-09T05:06:15;2.85;;;1.40;;
18507;SDS011;9383;50.928;12.116;2022-09-09T05:08:44;2.70;;;1.10;;
18507;SDS011;9383;50.928;12.116;2022-09-09T05:11:22;4.68;;;1.17;;
18507;SDS011;9383;50.928;12.116;2022-09-09T05:13:51;2.03;;;1.30;;
18507;SDS011;9383;50.928;12.116;2022-09-09T05:16:19;2.60;;;1.42;;
18507;SDS011;9383;50.928;12.116;2022-09-09T05:18:50;1.48;;;1.35;;
18507;SDS011;9383;50.928;12.116;2022-09-09T05:21:36;2.42;;;1.30;;
18507;SDS011;9383;50.928;12.116;2022-09-09T05:24:20;3.05;;;1.50;;
18507;SDS011;9383;50.928;12.116;2022-09-09T05:27:08;2.28;;;1.30;;
18507;SDS011;9383;50.928;12.116;2022-09-09T05:29:51;4.68;;;1.60;;
18507;SDS011;9383;50.928;12.116;2022-09-09T05:32:19;3.35;;;1.40;;
18507;SDS011;9383;50.928;12.116;2022-09-09T05:34:45;5.88;;;1.60;;
18507;SDS011;9383;50.928;12.116;2022-09-09T05:37:12;1.80;;;1.70;;
18507;SDS011;9383;50.928;12.116;2022-09-09T05:39:39;2.05;;;1.50;;
18507;SDS011;9383;50.928;12.116;2022-09-09T05:42:11;1.42;;;1.33;;
18507;SDS011;9383;50.928;12.116;2022-09-09T05:44:43;2.97;;;1.60;;
18507;SDS011;9383;50.928;12.116;2022-09-09T05:47:29;1.70;;;1.60;;
18507;SDS011;9383;50.928;12.116;2022-09-09T05:49:56;3.72;;;1.60;;
18507;SDS011;9383;50.928;12.116;2022-09-09T05:52:22;2.05;;;1.58;;
18507;SDS011;9383;50.928;12.116;2022-09-09T05:54:49;1.50;;;1.38;;
18507;SDS011;9383;50.928;12.116;2022-09-09T05:57:35;2.75;;;1.40;;
18507;SDS011;9383;50.928;12.116;2022-09-09T06:00:20;4.45;;;1.50;;
18507;SDS011;9383;50.928;12.116;2022-09-09T06:03:06;2.38;;;1.50;;
18507;SDS011;9383;50.928;12.116;2022-09-09T06:05:57;1.48;;;1.38;;
18507;SDS011;9383;50.928;12.116;2022-09-09T06:08:43;2.70;;;1.63;;
18507;SDS011;9383;50.928;12.116;2022-09-09T06:11:30;2.17;;;1.40;;
18507;SDS011;9383;50.928;12.116;2022-09-09T06:14:16;1.83;;;1.27;;
18507;SDS011;9383;50.928;12.116;2022-09-09T06:17:03;2.65;;;1.52;;
18507;SDS011;9383;50.928;12.116;2022-09-09T06:19:48;3.97;;;2.00;;
18507;SDS011;9383;50.928;12.116;2022-09-09T06:22:34;2.75;;;1.65;;
18507;SDS011;9383;50.928;12.116;2022-09-09T06:25:20;4.28;;;1.38;;
18507;SDS011;9383;50.928;12.116;2022-09-09T06:28:06;4.13;;;1.27;;
18507;SDS011;9383;50.928;12.116;2022-09-09T06:30:37;6.18;;;1.40;;
18507;SDS011;9383;50.928;12.116;2022-09-09T06:33:04;2.30;;;1.48;;
18507;SDS011;9383;50.928;12.116;2022-09-09T06:35:53;8.82;;;1.80;;
18507;SDS011;9383;50.928;12.116;2022-09-09T06:38:21;2.55;;;1.40;;
18507;SDS011;9383;50.928;12.116;2022-09-09T06:40:55;2.78;;;1.60;;
18507;SDS011;9383;50.928;12.116;2022-09-09T06:43:43;2.80;;;1.50;;
18507;SDS011;9383;50.928;12.116;2022-09-09T06:46:14;3.10;;;1.38;;
18507;SDS011;9383;50.928;12.116;2022-09-09T06:48:50;4.32;;;1.95;;
18507;SDS011;9383;50.928;12.116;2022-09-09T06:51:36;1.40;;;1.20;;
18507;SDS011;9383;50.928;12.116;2022-09-09T06:54:27;3.17;;;1.33;;
18507;SDS011;9383;50.928;12.116;2022-09-09T06:57:13;4.53;;;1.63;;
18507;SDS011;9383;50.928;12.116;2022-09-09T06:59:59;1.52;;;1.30;;
18507;SDS011;9383;50.928;12.116;2022-09-09T07:02:26;3.45;;;1.55;;
18507;SDS011;9383;50.928;12.116;2022-09-09T07:04:52;1.23;;;1.13;;
18507;SDS011;9383;50.928;12.116;2022-09-09T07:07:18;2.08;;;1.30;;
18507;SDS011;9383;50.928;12.116;2022-09-09T07:09:47;3.55;;;1.70;;
18507;SDS011;9383;50.928;12.116;2022-09-09T07:12:27;1.77;;;1.50;;
18507;SDS011;9383;50.928;12.116;2022-09-09T07:15:13;2.45;;;1.27;;
18507;SDS011;9383;50.928;12.116;2022-09-09T07:18:00;1.33;;;1.23;;
18507;SDS011;9383;50.928;12.116;2022-09-09T07:20:54;1.88;;;1.42;;
18507;SDS011;9383;50.928;12.116;2022-09-09T07:23:23;3.60;;;1.35;;
18507;SDS011;9383;50.928;12.116;2022-09-09T07:25:50;1.88;;;1.58;;
18507;SDS011;9383;50.928;12.116;2022-09-09T07:28:17;1.98;;;1.20;;
18507;SDS011;9383;50.928;12.116;2022-09-09T07:30:43;2.83;;;1.65;;
18507;SDS011;9383;50.928;12.116;2022-09-09T07:33:09;3.15;;;1.33;;
18507;SDS011;9383;50.928;12.116;2022-09-09T07:35:35;2.60;;;1.55;;
18507;SDS011;9383;50.928;12.116;2022-09-09T07:38:05;3.00;;;1.30;;
18507;SDS011;9383;50.928;12.116;2022-09-09T07:40:44;4.72;;;1.50;;
18507;SDS011;9383;50.928;12.116;2022-09-09T07:43:30;3.47;;;1.50;;
18507;SDS011;9383;50.928;12.116;2022-09-09T07:45:59;2.78;;;1.40;;
18507;SDS011;9383;50.928;12.116;2022-09-09T07:48:29;2.42;;;1.52;;
18507;SDS011;9383;50.928;12.116;2022-09-09T07:51:14;3.05;;;1.90;;
18507;SDS011;9383;50.928;12.116;2022-09-09T07:53:45;3.08;;;1.23;;
18507;SDS011;9383;50.928;12.116;2022-09-09T07:56:19;4.53;;;1.50;;
18507;SDS011;9383;50.928;12.116;2022-09-09T07:58:56;3.78;;;1.80;;
18507;SDS011;9383;50.928;12.116;2022-09-09T08:01:47;2.25;;;1.17;;
18507;SDS011;9383;50.928;12.116;2022-09-09T08:04:18;2.90;;;1.60;;
18507;SDS011;9383;50.928;12.116;2022-09-09T08:09:28;2.75;;;1.42;;
18507;SDS011;9383;50.928;12.116;2022-09-09T08:12:07;4.32;;;1.88;;
18507;SDS011;9383;50.928;12.116;2022-09-09T08:14:36;3.70;;;1.42;;
18507;SDS011;9383;50.928;12.116;2022-09-09T08:17:04;2.63;;;1.55;;
18507;SDS011;9383;50.928;12.116;2022-09-09T08:19:40;4.93;;;1.73;;
18507;SDS011;9383;50.928;12.116;2022-09-09T08:22:06;2.03;;;1.65;;
18507;SDS011;9383;50.928;12.116;2022-09-09T08:24:33;4.00;;;1.60;;
18507;SDS011;9383;50.928;12.116;2022-09-09T08:26:59;3.03;;;1.63;;
18507;SDS011;9383;50.928;12.116;2022-09-09T08:29:45;4.50;;;1.40;;
18507;SDS011;9383;50.928;12.116;2022-09-09T08:32:12;3.22;;;1.70;;
18507;SDS011;9383;50.928;12.116;2022-09-09T08:34:38;3.63;;;1.92;;
18507;SDS011;9383;50.928;12.116;2022-09-09T08:37:05;2.92;;;1.52;;
18507;SDS011;9383;50.928;12.116;2022-09-09T08:39:34;1.73;;;1.30;;
18507;SDS011;9383;50.928;12.116;2022-09-09T08:42:21;3.83;;;1.60;;
18507;SDS011;9383;50.928;12.116;2022-09-09T08:49:02;2.67;;;1.42;;
18507;SDS011;9383;50.928;12.116;2022-09-09T08:52:21;4.55;;;1.60;;
18507;SDS011;9383;50.928;12.116;2022-09-09T08:54:55;4.63;;;1.60;;
18507;SDS011;9383;50.928;12.116;2022-09-09T08:58:05;2.67;;;1.40;;
18507;SDS011;9383;50.928;12.116;2022-09-09T09:03:43;3.50;;;1.48;;
18507;SDS011;9383;50.928;12.116;2022-09-09T09:10:03;3.30;;;1.40;;
18507;SDS011;9383;50.928;12.116;2022-09-09T09:13:22;2.03;;;1.40;;
18507;SDS011;9383;50.928;12.116;2022-09-09T09:16:22;2.33;;;1.20;;
18507;SDS011;9383;50.928;12.116;2022-09-09T09:18:59;3.85;;;1.73;;
18507;SDS011;9383;50.928;12.116;2022-09-09T09:21:41;5.10;;;1.58;;
18507;SDS011;9383;50.928;12.116;2022-09-09T09:24:14;3.13;;;1.38;;
18507;SDS011;9383;50.928;12.116;2022-09-09T09:30:14;2.33;;;1.20;;
18507;SDS011;9383;50.928;12.116;2022-09-09T09:32:51;2.50;;;1.50;;
18507;SDS011;9383;50.928;12.116;2022-09-09T09:35:28;2.30;;;1.25;;
18507;SDS011;9383;50.928;12.116;2022-09-09T09:37:54;2.90;;;1.25;;
18507;SDS011;9383;50.928;12.116;2022-09-09T09:40:37;4.55;;;1.42;;
18507;SDS011;9383;50.928;12.116;2022-09-09T09:43:28;2.67;;;1.00;;
18507;SDS011;9383;50.928;12.116;2022-09-09T09:45:57;1.83;;;1.00;;
18507;SDS011;9383;50.928;12.116;2022-09-09T09:48:34;3.90;;;1.02;;
18507;SDS011;9383;50.928;12.116;2022-09-09T09:51:02;1.95;;;0.98;;
18507;SDS011;9383;50.928;12.116;2022-09-09T09:53:37;5.93;;;1.25;;
18507;SDS011;9383;50.928;12.116;2022-09-09T09:56:11;3.17;;;1.40;;
18507;SDS011;9383;50.928;12.116;2022-09-09T10:04:15;2.53;;;1.30;;
18507;SDS011;9383;50.928;12.116;2022-09-09T10:06:50;1.70;;;0.95;;
18507;SDS011;9383;50.928;12.116;2022-09-09T10:15:14;2.70;;;1.40;;
18507;SDS011;9383;50.928;12.116;2022-09-09T10:21:38;4.55;;;1.23;;
18507;SDS011;9383;50.928;12.116;2022-09-09T10:36:28;3.03;;;1.27;;
18507;SDS011;9383;50.928;12.116;2022-09-09T10:39:35;3.28;;;1.33;;
18507;SDS011;9383;50.928;12.116;2022-09-09T10:44:44;3.15;;;1.10;;
18507;SDS011;9383;50.928;12.116;2022-09-09T10:47:28;2.38;;;0.80;;
18507;SDS011;9383;50.928;12.116;2022-09-09T10:50:41;3.72;;;1.13;;
18507;SDS011;9383;50.928;12.116;2022-09-09T10:56:09;4.13;;;1.00;;
18507;SDS011;9383;50.928;12.116;2022-09-09T10:58:47;2.60;;;1.35;;
18507;SDS011;9383;50.928;12.116;2022-09-09T11:01:25;4.30;;;1.40;;
18507;SDS011;9383;50.928;12.116;2022-09-09T11:04:22;5.35;;;1.20;;
18507;SDS011;9383;50.928;12.116;2022-09-09T11:07:05;2.30;;;0.98;;
18507;SDS011;9383;50.928;12.116;2022-09-09T11:09:42;1.27;;;0.82;;
18507;SDS011;9383;50.928;12.116;2022-09-09T11:12:19;2.33;;;1.10;;
18507;SDS011;9383;50.928;12.116;2022-09-09T11:14:50;3.20;;;1.00;;
18507;SDS011;9383;50.928;12.116;2022-09-09T11:17:58;2.55;;;0.98;;
18507;SDS011;9383;50.928;12.116;2022-09-09T11:20:32;3.30;;;1.25;;
18507;SDS011;9383;50.928;12.116;2022-09-09T11:23:05;3.13;;;1.00;;
18507;SDS011;9383;50.928;12.116;2022-09-09T11:25:52;2.60;;;1.27;;
18507;SDS011;9383;50.928;12.116;2022-09-09T11:34:50;2.55;;;1.20;;
18507;SDS011;9383;50.928;12.116;2022-09-09T11:40:54;2.40;;;0.98;;
18507;SDS011;9383;50.928;12.116;2022-09-09T11:46:13;3.15;;;0.95;;
18507;SDS011;9383;50.928;12.116;2022-09-09T11:48:44;2.55;;;0.95;;
18507;SDS011;9383;50.928;12.116;2022-09-09T11:51:35;4.43;;;1.30;;
18507;SDS011;9383;50.928;12.116;2022-09-09T11:54:28;3.53;;;1.50;;
18507;SDS011;9383;50.928;12.116;2022-09-09T11:56:56;2.63;;;1.38;;
18507;SDS011;9383;50.928;12.116;2022-09-09T11:59:26;1.88;;;0.95;;
18507;SDS011;9383;50.928;12.116;2022-09-09T12:02:00;1.77;;;0.90;;
18507;SDS011;9383;50.928;12.116;2022-09-09T12:04:49;2.38;;;1.10;;
18507;SDS011;9383;50.928;12.116;2022-09-09T12:13:07;1.20;;;0.98;;
18507;SDS011;9383;50.928;12.116;2022-09-09T12:15:58;3.05;;;1.35;;
18507;SDS011;9383;50.928;12.116;2022-09-09T12:18:37;1.63;;;0.90;;
18507;SDS011;9383;50.928;12.116;2022-09-09T12:21:18;2.47;;;1.23;;
18507;SDS011;9383;50.928;12.116;2022-09-09T12:24:30;2.35;;;1.13;;
18507;SDS011;9383;50.928;12.116;2022-09-09T12:27:20;3.35;;;1.10;;
18507;SDS011;9383;50.928;12.116;2022-09-09T12:30:11;1.98;;;0.98;;
18507;SDS011;9383;50.928;12.116;2022-09-09T12:32:41;1.38;;;0.90;;
18507;SDS011;9383;50.928;12.116;2022-09-09T12:35:28;3.95;;;1.20;;
18507;SDS011;9383;50.928;12.116;2022-09-09T12:38:00;2.13;;;1.17;;
18507;SDS011;9383;50.928;12.116;2022-09-09T12:40:29;2.00;;;1.10;;
18507;SDS011;9383;50.928;12.116;2022-09-09T12:43:01;1.65;;;0.80;;
18507;SDS011;9383;50.928;12.116;2022-09-09T12:45:47;1.45;;;1.05;;
18507;SDS011;9383;50.928;12.116;2022-09-09T12:48:27;2.53;;;1.00;;
18507;SDS011;9383;50.928;12.116;2022-09-09T12:51:02;2.78;;;1.25;;
18507;SDS011;9383;50.928;12.116;2022-09-09T12:53:41;2.25;;;1.20;;
18507;SDS011;9383;50.928;12.116;2022-09-09T12:56:09;2.45;;;1.17;;
18507;SDS011;9383;50.928;12.116;2022-09-09T12:58:47;2.22;;;1.30;;
18507;SDS011;9383;50.928;12.116;2022-09-09T13:01:26;2.60;;;1.35;;
18507;SDS011;9383;50.928;12.116;2022-09-09T13:03:55;2.25;;;1.42;;
18507;SDS011;9383;50.928;12.116;2022-09-09T13:06:24;1.38;;;0.85;;
18507;SDS011;9383;50.928;12.116;2022-09-09T13:09:03;1.40;;;1.00;;
18507;SDS011;9383;50.928;12.116;2022-09-09T13:11:37;2.55;;;1.10;;
18507;SDS011;9383;50.928;12.116;2022-09-09T13:14:14;3.03;;;1.23;;
18507;SDS011;9383;50.928;12.116;2022-09-09T13:16:55;1.42;;;0.85;;
18507;SDS011;9383;50.928;12.116;2022-09-09T13:19:24;1.40;;;1.02;;
18507;SDS011;9383;50.928;12.116;2022-09-09T13:21:54;1.55;;;1.00;;
18507;SDS011;9383;50.928;12.116;2022-09-09T13:24:33;2.47;;;1.50;;
18507;SDS011;9383;50.928;12.116;2022-09-09T13:27:01;2.25;;;0.98;;
18507;SDS011;9383;50.928;12.116;2022-09-09T13:29:52;1.85;;;0.90;;
18507;SDS011;9383;50.928;12.116;2022-09-09T13:32:22;1.30;;;0.90;;
18507;SDS011;9383;50.928;12.116;2022-09-09T13:34:53;1.05;;;0.80;;
18507;SDS011;9383;50.928;12.116;2022-09-09T13:37:31;2.40;;;1.17;;
18507;SDS011;9383;50.928;12.116;2022-09-09T13:40:14;2.40;;;1.20;;
18507;SDS011;9383;50.928;12.116;2022-09-09T13:42:46;2.92;;;1.00;;
18507;SDS011;9383;50.928;12.116;2022-09-09T13:45:20;2.70;;;1.25;;
18507;SDS011;9383;50.928;12.116;2022-09-09T13:47:48;3.83;;;1.00;;
18507;SDS011;9383;50.928;12.116;2022-09-09T13:50:26;4.32;;;1.05;;
18507;SDS011;9383;50.928;12.116;2022-09-09T13:52:58;0.77;;;0.77;;
18507;SDS011;9383;50.928;12.116;2022-09-09T13:55:30;2.38;;;1.27;;
18507;SDS011;9383;50.928;12.116;2022-09-09T13:58:00;2.28;;;0.75;;
18507;SDS011;9383;50.928;12.116;2022-09-09T14:00:33;2.47;;;0.80;;
18507;SDS011;9383;50.928;12.116;2022-09-09T14:03:00;3.45;;;1.10;;
18507;SDS011;9383;50.928;12.116;2022-09-09T14:05:29;3.30;;;1.10;;
18507;SDS011;9383;50.928;12.116;2022-09-09T14:08:00;2.55;;;1.13;;
18507;SDS011;9383;50.928;12.116;2022-09-09T14:10:34;1.70;;;0.80;;
18507;SDS011;9383;50.928;12.116;2022-09-09T14:13:03;4.03;;;1.10;;
18507;SDS011;9383;50.928;12.116;2022-09-09T14:15:29;0.80;;;0.60;;
18507;SDS011;9383;50.928;12.116;2022-09-09T14:17:56;3.30;;;1.17;;
18507;SDS011;9383;50.928;12.116;2022-09-09T14:20:28;2.00;;;0.95;;
18507;SDS011;9383;50.928;12.116;2022-09-09T14:22:55;1.65;;;1.08;;
18507;SDS011;9383;50.928;12.116;2022-09-09T14:25:26;4.28;;;1.33;;
18507;SDS011;9383;50.928;12.116;2022-09-09T14:27:53;1.77;;;1.00;;
18507;SDS011;9383;50.928;12.116;2022-09-09T14:30:20;2.30;;;0.80;;
18507;SDS011;9383;50.928;12.116;2022-09-09T14:32:46;2.20;;;0.88;;
18507;SDS011;9383;50.928;12.116;2022-09-09T14:35:12;2.30;;;0.82;;
18507;SDS011;9383;50.928;12.116;2022-09-09T14:37:51;2.28;;;0.95;;
18507;SDS011;9383;50.928;12.116;2022-09-09T14:40:19;3.05;;;0.98;;
18507;SDS011;9383;50.928;12.116;2022-09-09T14:42:52;1.90;;;0.80;;
18507;SDS011;9383;50.928;12.116;2022-09-09T14:45:19;3.10;;;1.15;;
18507;SDS011;9383;50.928;12.116;2022-09-09T14:47:49;4.47;;;1.25;;
18507;SDS011;9383;50.928;12.116;2022-09-09T14:50:17;2.60;;;0.93;;
18507;SDS011;9383;50.928;12.116;2022-09-09T14:52:45;2.75;;;0.93;;
18507;SDS011;9383;50.928;12.116;2022-09-09T14:55:14;2.17;;;0.88;;
18507;SDS011;9383;50.928;12.116;2022-09-09T14:57:41;1.85;;;0.80;;
18507;SDS011;9383;50.928;12.116;2022-09-09T15:00:08;1.17;;;0.60;;
18507;SDS011;9383;50.928;12.116;2022-09-09T15:02:36;3.88;;;0.90;;
18507;SDS011;9383;50.928;12.116;2022-09-09T15:05:14;2.33;;;0.85;;
18507;SDS011;9383;50.928;12.116;2022-09-09T15:07:43;3.00;;;0.85;;
18507;SDS011;9383;50.928;12.116;2022-09-09T15:10:12;2.25;;;0.82;;
18507;SDS011;9383;50.928;12.116;2022-09-09T15:12:40;0.90;;;0.68;;
18507;SDS011;9383;50.928;12.116;2022-09-09T15:15:14;3.15;;;1.10;;
18507;SDS011;9383;50.928;12.116;2022-09-09T15:17:49;2.95;;;0.85;;
18507;SDS011;9383;50.928;12.116;2022-09-09T15:20:23;2.10;;;0.65;;
18507;SDS011;9383;50.928;12.116;2022-09-09T15:22:50;2.35;;;0.40;;
18507;SDS011;9383;50.928;12.116;2022-09-09T15:25:37;1.70;;;0.60;;
18507;SDS011;9383;50.928;12.116;2022-09-09T15:28:05;2.10;;;0.70;;
18507;SDS011;9383;50.928;12.116;2022-09-09T15:30:51;5.18;;;0.70;;
18507;SDS011;9383;50.928;12.116;2022-09-09T15:33:20;2.10;;;0.75;;
18507;SDS011;9383;50.928;12.116;2022-09-09T15:38:46;1.88;;;0.80;;
18507;SDS011;9383;50.928;12.116;2022-09-09T15:41:13;2.22;;;0.57;;
18507;SDS011;9383;50.928;12.116;2022-09-09T15:43:46;1.25;;;0.60;;
18507;SDS011;9383;50.928;12.116;2022-09-09T15:46:26;1.02;;;0.63;;
18507;SDS011;9383;50.928;12.116;2022-09-09T15:48:53;2.40;;;0.80;;
18507;SDS011;9383;50.928;12.116;2022-09-09T15:51:56;1.55;;;0.60;;
18507;SDS011;9383;50.928;12.116;2022-09-09T15:54:47;3.95;;;0.82;;
18507;SDS011;9383;50.928;12.116;2022-09-09T15:57:17;3.05;;;0.90;;
18507;SDS011;9383;50.928;12.116;2022-09-09T15:59:44;1.67;;;0.80;;
18507;SDS011;9383;50.928;12.116;2022-09-09T16:02:10;1.98;;;0.70;;
18507;SDS011;9383;50.928;12.116;2022-09-09T16:04:37;1.05;;;0.63;;
18507;SDS011;9383;50.928;12.116;2022-09-09T16:07:06;1.70;;;0.80;;
18507;SDS011;9383;50.928;12.116;2022-09-09T16:09:34;0.77;;;0.70;;
18507;SDS011;9383;50.928;12.116;2022-09-09T16:12:03;3.60;;;1.08;;
18507;SDS011;9383;50.928;12.116;2022-09-09T16:14:35;0.88;;;0.47;;
18507;SDS011;9383;50.928;12.116;2022-09-09T16:17:02;5.07;;;0.80;;
18507;SDS011;9383;50.928;12.116;2022-09-09T16:19:31;3.30;;;0.70;;
18507;SDS011;9383;50.928;12.116;2022-09-09T16:22:04;1.30;;;0.60;;
18507;SDS011;9383;50.928;12.116;2022-09-09T16:24:33;1.45;;;0.80;;
18507;SDS011;9383;50.928;12.116;2022-09-09T16:26:59;1.58;;;0.77;;
18507;SDS011;9383;50.928;12.116;2022-09-09T16:29:26;1.65;;;0.60;;
18507;SDS011;9383;50.928;12.116;2022-09-09T16:32:12;2.67;;;0.88;;
18507;SDS011;9383;50.928;12.116;2022-09-09T16:34:40;2.72;;;0.82;;
18507;SDS011;9383;50.928;12.116;2022-09-09T16:37:27;6.05;;;1.10;;
18507;SDS011;9383;50.928;12.116;2022-09-09T16:39:54;4.07;;;1.00;;
18507;SDS011;9383;50.928;12.116;2022-09-09T16:42:23;1.45;;;0.50;;
18507;SDS011;9383;50.928;12.116;2022-09-09T16:44:50;2.63;;;0.80;;
18507;SDS011;9383;50.928;12.116;2022-09-09T16:47:16;3.60;;;0.70;;
18507;SDS011;9383;50.928;12.116;2022-09-09T16:49:56;2.67;;;0.70;;
18507;SDS011;9383;50.928;12.116;2022-09-09T16:52:24;1.98;;;0.98;;
18507;SDS011;9383;50.928;12.116;2022-09-09T16:54:53;3.20;;;0.70;;
18507;SDS011;9383;50.928;12.116;2022-09-09T16:57:38;1.52;;;0.80;;
18507;SDS011;9383;50.928;12.116;2022-09-09T17:00:24;2.08;;;0.85;;
18507;SDS011;9383;50.928;12.116;2022-09-09T17:03:14;1.75;;;1.13;;
18507;SDS011;9383;50.928;12.116;2022-09-09T17:05:44;2.08;;;1.10;;
18507;SDS011;9383;50.928;12.116;2022-09-09T17:08:14;5.78;;;1.55;;
18507;SDS011;9383;50.928;12.116;2022-09-09T17:10:42;4.38;;;1.27;;
18507;SDS011;9383;50.928;12.116;2022-09-09T17:13:26;3.60;;;1.10;;
18507;SDS011;9383;50.928;12.116;2022-09-09T17:16:13;4.70;;;1.25;;
18507;SDS011;9383;50.928;12.116;2022-09-09T17:18:50;6.13;;;1.42;;
18507;SDS011;9383;50.928;12.116;2022-09-09T17:21:37;2.60;;;1.33;;
18507;SDS011;9383;50.928;12.116;2022-09-09T17:24:24;1.33;;;0.98;;
18507;SDS011;9383;50.928;12.116;2022-09-09T17:26:54;1.17;;;1.05;;